Time;durP1;ratioP1;P1;durP2;ratioP2;P2;SDS_P1;SDS_P2;PMS_P1;PMS_P2;Temp;Humidity;BMP_temperature;BMP_pressure;BME280_temperature;BME280_humidity;BME280_pressure;Samples;Min_cycle;Max_cycle;Signal;HPM_P1;HPM_P2
2023/08/17 00:01:33;;;;;;;16.92;14.90;;;16.10;99.90;;;;;;4966167;28;20066;-71
2023/08/17 00:03:59;;;;;;;23.23;15.32;;;16.10;99.90;;;;;;4967727;28;20066;-72
2023/08/17 00:06:27;;;;;;;21.83;14.63;;;16.10;99.90;;;;;;4970093;28;20088;-73
2023/08/17 00:08:53;;;;;;;20.63;15.40;;;16.20;99.90;;;;;;4953522;28;20112;-73
2023/08/17 00:11:21;;;;;;;22.27;14.55;;;16.10;99.90;;;;;;4963836;28;20053;-70
2023/08/17 00:13:48;;;;;;;25.17;15.57;;;16.10;99.90;;;;;;4966738;28;20049;-73
2023/08/17 00:16:14;;;;;;;18.35;13.95;;;16.20;99.90;;;;;;4972017;28;20097;-71
2023/08/17 00:18:41;;;;;;;18.17;14.00;;;16.20;99.90;;;;;;4965940;28;21391;-71
2023/08/17 00:21:08;;;;;;;15.68;13.20;;;16.20;99.90;;;;;;4968040;28;20072;-71
2023/08/17 00:23:35;;;;;;;15.52;13.90;;;16.20;99.90;;;;;;4965502;28;20043;-71
2023/08/17 00:26:02;;;;;;;21.50;13.40;;;16.20;99.90;;;;;;4966102;28;20061;-71
2023/08/17 00:28:28;;;;;;;19.13;12.70;;;16.10;99.90;;;;;;4964562;28;20057;-71
2023/08/17 00:30:56;;;;;;;19.52;13.65;;;16.20;99.90;;;;;;4969835;28;20043;-74
2023/08/17 00:33:23;;;;;;;15.00;11.57;;;16.20;99.90;;;;;;4955213;28;20088;-71
2023/08/17 00:35:49;;;;;;;19.30;12.40;;;16.20;99.90;;;;;;4966762;28;20043;-72
2023/08/17 00:38:17;;;;;;;18.77;12.95;;;16.20;99.90;;;;;;4971919;28;20045;-71
2023/08/17 00:40:44;;;;;;;17.17;12.95;;;16.20;99.90;;;;;;4961564;28;20058;-71
2023/08/17 00:43:11;;;;;;;14.80;12.02;;;16.30;99.90;;;;;;4973284;28;20050;-72
2023/08/17 00:45:38;;;;;;;16.90;12.60;;;16.30;99.90;;;;;;4968025;28;22286;-71
2023/08/17 00:48:07;;;;;;;15.48;12.77;;;16.30;99.90;;;;;;4954763;28;20149;-74
2023/08/17 00:50:37;;;;;;;14.55;12.43;;;16.30;99.90;;;;;;4968048;28;20049;-72
2023/08/17 00:53:04;;;;;;;16.98;11.93;;;16.30;99.90;;;;;;4967902;28;20050;-72
2023/08/17 00:55:32;;;;;;;15.88;12.85;;;16.30;99.90;;;;;;4969107;28;20678;-74
2023/08/17 00:57:59;;;;;;;17.48;12.10;;;16.30;99.90;;;;;;4968324;28;20054;-71
2023/08/17 01:00:27;;;;;;;18.33;12.73;;;16.30;99.90;;;;;;4963081;28;20133;-74
2023/08/17 01:02:57;;;;;;;19.48;12.82;;;16.30;99.90;;;;;;4985448;28;20523;-72
2023/08/17 01:05:24;;;;;;;16.77;12.73;;;16.40;99.90;;;;;;4963296;28;20065;-72
2023/08/17 01:07:51;;;;;;;17.23;12.73;;;16.40;99.90;;;;;;4967679;28;20846;-72
2023/08/17 01:10:18;;;;;;;18.23;13.00;;;16.40;99.90;;;;;;4951966;28;20100;-72
2023/08/17 01:13:05;;;;;;;26.02;15.18;;;16.50;99.90;;;;;;4966585;28;21955;-74
2023/08/17 01:15:37;;;;;;;19.38;14.40;;;16.50;99.90;;;;;;4964354;28;20516;-75
2023/08/17 01:18:16;;;;;;;20.63;14.52;;;16.50;99.90;;;;;;4970014;28;20875;-74
2023/08/17 01:20:44;;;;;;;28.83;16.00;;;16.50;99.90;;;;;;4966199;28;20054;-72
2023/08/17 01:23:11;;;;;;;23.45;15.18;;;16.50;99.90;;;;;;4974938;28;20046;-72
2023/08/17 01:25:38;;;;;;;23.23;15.85;;;16.40;99.90;;;;;;4965233;28;20146;-72
2023/08/17 01:28:05;;;;;;;20.92;16.20;;;16.50;99.90;;;;;;4972540;28;20058;-72
2023/08/17 01:30:48;;;;;;;20.63;15.23;;;16.50;99.90;;;;;;4963219;28;20050;-72
2023/08/17 01:33:40;;;;;;;22.87;16.37;;;16.40;99.90;;;;;;4969872;28;20043;-73
2023/08/17 01:36:30;;;;;;;29.02;16.75;;;16.40;99.90;;;;;;4966614;28;20042;-72
2023/08/17 01:38:59;;;;;;;24.25;17.02;;;16.40;99.90;;;;;;4968079;28;20620;-72
2023/08/17 01:41:27;;;;;;;27.02;17.52;;;16.40;99.90;;;;;;4977763;28;20043;-72
2023/08/17 01:43:54;;;;;;;24.13;18.10;;;16.40;99.90;;;;;;4966695;28;20038;-72
2023/08/17 01:46:21;;;;;;;25.27;18.92;;;16.40;99.90;;;;;;4971965;28;20161;-72
2023/08/17 01:48:48;;;;;;;28.30;20.38;;;16.40;99.90;;;;;;4963634;28;20054;-73
2023/08/17 01:51:22;;;;;;;23.90;18.10;;;16.40;99.90;;;;;;4972050;28;20413;-72
2023/08/17 01:53:50;;;;;;;22.77;16.92;;;16.40;99.90;;;;;;4961439;28;20162;-73
2023/08/17 01:56:17;;;;;;;25.38;18.70;;;16.30;99.90;;;;;;4952509;28;20050;-72
2023/08/17 01:58:44;;;;;;;25.08;19.50;;;16.30;99.90;;;;;;4965327;28;20046;-73
2023/08/17 02:01:11;;;;;;;33.80;20.90;;;16.30;99.90;;;;;;4966483;28;20042;-72
2023/08/17 02:03:38;;;;;;;29.15;20.83;;;16.30;99.90;;;;;;4968147;28;20058;-73
2023/08/17 02:06:05;;;;;;;31.48;20.65;;;16.40;99.90;;;;;;4968174;28;20873;-73
2023/08/17 02:08:34;;;;;;;32.88;21.40;;;16.40;99.90;;;;;;4949807;28;20050;-73
2023/08/17 02:11:00;;;;;;;32.50;20.77;;;16.40;99.90;;;;;;4964335;28;20069;-72
2023/08/17 02:13:27;;;;;;;33.20;22.05;;;16.40;99.90;;;;;;4961037;28;20046;-73
2023/08/17 02:16:02;;;;;;;29.15;20.27;;;16.40;99.90;;;;;;4979823;28;20046;-72
2023/08/17 02:18:31;;;;;;;36.08;23.90;;;16.40;99.90;;;;;;4970806;28;20084;-74
2023/08/17 02:20:58;;;;;;;35.75;22.90;;;16.40;99.90;;;;;;4965808;28;20406;-74
2023/08/17 02:23:25;;;;;;;31.25;22.83;;;16.30;99.90;;;;;;4966825;28;20725;-72
2023/08/17 02:25:52;;;;;;;36.80;24.20;;;16.30;99.90;;;;;;4965274;28;20049;-73
2023/08/17 02:28:21;;;;;;;38.78;25.25;;;16.40;99.90;;;;;;4954414;28;20682;-73
2023/08/17 02:30:48;;;;;;;33.67;25.65;;;16.40;99.90;;;;;;4974728;28;20101;-72
2023/08/17 02:33:15;;;;;;;38.28;25.58;;;16.40;99.90;;;;;;4966139;28;20076;-72
2023/08/17 02:35:42;;;;;;;34.72;25.88;;;16.50;99.90;;;;;;4947170;28;20124;-73
2023/08/17 02:38:09;;;;;;;33.75;24.60;;;16.50;99.90;;;;;;4967331;28;20053;-73
2023/08/17 02:40:36;;;;;;;40.70;25.67;;;16.50;99.90;;;;;;4962184;28;20054;-73
2023/08/17 02:43:03;;;;;;;39.85;27.67;;;16.50;99.90;;;;;;4969142;28;20733;-73
2023/08/17 02:45:30;;;;;;;45.88;27.30;;;16.60;99.90;;;;;;4968147;28;20130;-73
2023/08/17 02:47:57;;;;;;;44.22;28.83;;;16.60;99.90;;;;;;4986711;28;20141;-73
2023/08/17 02:50:24;;;;;;;44.63;28.65;;;16.60;99.90;;;;;;4960676;28;20046;-74
2023/08/17 02:52:51;;;;;;;46.25;28.17;;;16.60;99.90;;;;;;4973495;28;20054;-73
2023/08/17 02:55:17;;;;;;;38.78;28.70;;;16.60;99.90;;;;;;4970014;28;20050;-74
2023/08/17 02:57:44;;;;;;;42.45;27.95;;;16.60;99.90;;;;;;4963087;28;20651;-73
2023/08/17 03:00:11;;;;;;;45.75;29.95;;;16.60;99.90;;;;;;4968389;28;20066;-73
2023/08/17 03:02:38;;;;;;;49.78;32.28;;;16.60;99.90;;;;;;4977186;28;20051;-73
2023/08/17 03:05:05;;;;;;;50.72;31.63;;;16.70;99.90;;;;;;4967777;28;20034;-73
2023/08/17 03:07:32;;;;;;;49.85;30.75;;;16.80;99.90;;;;;;4981821;28;20042;-73
2023/08/17 03:09:59;;;;;;;47.03;31.00;;;16.70;99.90;;;;;;4962270;28;20054;-73
2023/08/17 03:12:26;;;;;;;51.03;31.52;;;16.80;99.90;;;;;;4958021;28;20058;-73
2023/08/17 03:14:53;;;;;;;44.92;30.52;;;16.90;99.90;;;;;;4964796;28;20859;-73
2023/08/17 03:17:20;;;;;;;47.67;30.15;;;16.80;99.90;;;;;;4968253;28;20111;-73
2023/08/17 03:19:47;;;;;;;47.03;32.72;;;16.80;99.90;;;;;;4948902;28;20074;-73
2023/08/17 03:22:15;;;;;;;50.85;35.22;;;16.80;99.90;;;;;;4967915;28;20042;-73
2023/08/17 03:24:42;;;;;;;56.55;35.25;;;16.80;99.90;;;;;;4963462;28;20056;-73
2023/08/17 03:27:09;;;;;;;49.95;34.72;;;16.80;99.90;;;;;;4979975;28;20073;-74
2023/08/17 03:29:36;;;;;;;53.47;35.38;;;16.90;99.90;;;;;;4961480;28;20078;-73
2023/08/17 03:32:03;;;;;;;59.30;34.45;;;16.90;99.90;;;;;;4972058;28;20581;-73
2023/08/17 03:34:30;;;;;;;58.65;35.97;;;16.90;99.90;;;;;;4972086;28;20142;-75
2023/08/17 03:36:56;;;;;;;51.95;34.78;;;17.00;99.90;;;;;;4959416;28;20056;-74
2023/08/17 03:39:23;;;;;;;58.17;36.25;;;17.10;99.90;;;;;;4963797;28;20043;-74
2023/08/17 03:41:50;;;;;;;54.95;37.95;;;17.00;99.90;;;;;;4962409;28;20042;-74
2023/08/17 03:44:17;;;;;;;60.15;37.33;;;17.00;99.90;;;;;;4968613;28;20038;-75
2023/08/17 03:46:44;;;;;;;57.17;37.75;;;16.90;99.90;;;;;;4973746;28;20047;-74
2023/08/17 03:49:12;;;;;;;58.42;38.75;;;17.00;99.90;;;;;;4969392;28;20065;-75
2023/08/17 03:51:39;;;;;;;66.25;42.22;;;17.10;99.90;;;;;;4980338;28;20046;-74
2023/08/17 03:54:06;;;;;;;65.60;39.78;;;17.00;99.90;;;;;;4977045;28;20046;-74
2023/08/17 03:56:32;;;;;;;67.25;42.97;;;17.10;99.90;;;;;;4966141;28;20378;-74
2023/08/17 03:58:59;;;;;;;66.65;43.92;;;17.10;99.90;;;;;;4981772;28;20311;-74
2023/08/17 04:01:26;;;;;;;71.65;47.08;;;17.10;99.90;;;;;;4981007;28;20069;-74
2023/08/17 04:03:53;;;;;;;70.65;44.92;;;16.90;99.90;;;;;;4964718;28;20137;-74
2023/08/17 04:06:19;;;;;;;68.53;45.20;;;16.90;99.90;;;;;;4970357;28;20093;-75
2023/08/17 04:08:47;;;;;;;65.78;44.92;;;16.80;99.90;;;;;;4967795;28;20047;-74
2023/08/17 04:11:14;;;;;;;76.53;46.17;;;16.80;99.90;;;;;;4980196;28;20103;-74
2023/08/17 04:13:40;;;;;;;83.22;48.88;;;16.70;99.90;;;;;;4975250;28;20473;-74
2023/08/17 04:16:07;;;;;;;74.72;47.53;;;16.70;99.90;;;;;;4963626;28;20802;-73
2023/08/17 04:18:34;;;;;;;74.47;46.30;;;16.70;99.90;;;;;;4969756;28;20050;-73
2023/08/17 04:21:01;;;;;;;80.90;48.75;;;16.70;99.90;;;;;;4947461;28;20034;-73
2023/08/17 04:23:27;;;;;;;88.13;51.75;;;16.80;99.90;;;;;;4951207;28;20109;-73
2023/08/17 04:25:55;;;;;;;84.32;50.33;;;16.80;99.90;;;;;;4966329;28;20042;-74
2023/08/17 04:28:21;;;;;;;93.28;48.88;;;16.70;99.90;;;;;;4974186;28;20133;-73
2023/08/17 04:30:51;;;;;;;89.30;49.78;;;16.60;99.90;;;;;;4963072;28;20050;-74
2023/08/17 04:33:18;;;;;;;90.43;49.40;;;16.60;99.90;;;;;;4951982;28;20125;-73
2023/08/17 04:35:48;;;;;;;74.00;45.75;;;16.80;99.90;;;;;;4968035;28;20046;-74
2023/08/17 04:38:16;;;;;;;85.28;46.45;;;16.80;99.90;;;;;;4952118;28;20062;-73
2023/08/17 04:40:43;;;;;;;76.90;42.35;;;16.80;99.90;;;;;;4941829;28;20050;-73
2023/08/17 04:43:11;;;;;;;77.65;44.22;;;16.70;99.90;;;;;;4964630;28;20061;-73
2023/08/17 04:45:38;;;;;;;78.35;46.63;;;16.70;99.90;;;;;;4972597;28;20108;-73
2023/08/17 04:48:06;;;;;;;84.57;44.95;;;16.70;99.90;;;;;;4966095;28;20053;-73
2023/08/17 04:50:32;;;;;;;84.30;44.45;;;16.80;99.90;;;;;;4967186;28;20304;-75
2023/08/17 04:53:00;;;;;;;83.30;43.85;;;16.80;99.90;;;;;;4965212;28;20130;-73
2023/08/17 04:55:27;;;;;;;90.68;46.05;;;16.80;99.90;;;;;;4968735;28;20043;-73
2023/08/17 04:57:55;;;;;;;90.55;45.00;;;16.80;99.90;;;;;;4963961;28;20047;-74
2023/08/17 05:00:27;;;;;;;89.05;45.10;;;16.80;99.90;;;;;;4961877;28;20066;-74
2023/08/17 05:02:55;;;;;;;85.38;43.10;;;16.70;99.90;;;;;;4962549;28;20047;-74
2023/08/17 05:05:25;;;;;;;96.95;45.10;;;16.60;99.90;;;;;;4969367;28;20046;-74
2023/08/17 05:07:53;;;;;;;89.60;44.67;;;16.60;99.90;;;;;;4944607;28;20480;-74
2023/08/17 05:10:19;;;;;;;99.55;45.67;;;16.70;99.90;;;;;;4969887;28;20585;-74
2023/08/17 05:12:46;;;;;;;92.80;45.10;;;16.70;99.90;;;;;;4963527;28;20504;-74
2023/08/17 05:15:13;;;;;;;99.78;46.47;;;16.70;99.90;;;;;;4943448;28;20100;-74
2023/08/17 05:17:40;;;;;;;93.32;47.10;;;16.80;99.90;;;;;;4942309;28;20094;-74
2023/08/17 05:20:11;;;;;;;98.25;46.65;;;16.80;99.90;;;;;;4945323;28;20054;-74
2023/08/17 05:22:39;;;;;;;104.20;47.55;;;16.90;99.90;;;;;;4965224;28;20046;-75
2023/08/17 05:25:06;;;;;;;96.53;46.33;;;16.80;99.90;;;;;;4959902;28;20054;-75
2023/08/17 05:27:34;;;;;;;105.25;48.58;;;16.90;99.90;;;;;;4968316;28;20425;-75
2023/08/17 05:30:02;;;;;;;103.00;47.42;;;16.90;99.90;;;;;;4964075;28;20265;-75
2023/08/17 05:32:28;;;;;;;110.72;48.55;;;16.90;99.90;;;;;;4965618;28;20055;-75
2023/08/17 05:34:57;;;;;;;104.90;47.28;;;17.00;99.90;;;;;;4965017;28;20121;-74
2023/08/17 05:37:24;;;;;;;111.70;46.53;;;17.00;99.90;;;;;;4967542;28;20133;-74
2023/08/17 05:39:51;;;;;;;101.88;46.33;;;16.90;99.90;;;;;;4942230;28;20027;-74
2023/08/17 05:42:19;;;;;;;109.32;46.65;;;16.90;99.90;;;;;;4977788;28;20034;-74
2023/08/17 05:44:46;;;;;;;123.80;48.20;;;16.90;99.90;;;;;;4963669;28;20047;-75
2023/08/17 05:47:15;;;;;;;123.75;48.30;;;17.00;99.90;;;;;;4960743;28;20038;-74
2023/08/17 05:49:44;;;;;;;132.25;49.35;;;16.90;99.90;;;;;;4963661;28;20112;-74
2023/08/17 05:52:11;;;;;;;127.50;50.45;;;16.80;99.90;;;;;;4941001;28;20054;-75
2023/08/17 05:54:38;;;;;;;131.35;50.38;;;16.80;99.90;;;;;;4960559;28;20429;-75
2023/08/17 05:57:05;;;;;;;140.85;51.47;;;17.00;99.90;;;;;;4963508;28;20065;-75
2023/08/17 05:59:32;;;;;;;135.60;50.55;;;16.90;99.90;;;;;;4966381;28;20035;-75
2023/08/17 06:01:59;;;;;;;118.20;49.38;;;17.00;99.90;;;;;;4975914;28;20594;-75
2023/08/17 06:04:25;;;;;;;127.38;49.88;;;17.10;99.90;;;;;;4968821;28;20054;-75
2023/08/17 06:06:52;;;;;;;142.48;51.75;;;17.10;99.90;;;;;;4961479;28;20158;-76
2023/08/17 06:09:20;;;;;;;127.93;49.55;;;17.20;99.90;;;;;;4968640;28;20034;-75
2023/08/17 06:11:46;;;;;;;132.88;49.13;;;17.30;99.90;;;;;;4980054;28;20511;-75
2023/08/17 06:14:13;;;;;;;114.80;48.85;;;17.20;99.90;;;;;;4965923;28;20047;-75
2023/08/17 06:16:40;;;;;;;130.73;48.20;;;17.20;99.90;;;;;;4965052;28;20050;-75
2023/08/17 06:19:07;;;;;;;123.70;47.05;;;17.30;99.90;;;;;;4974792;28;20544;-75
2023/08/17 06:21:34;;;;;;;130.35;46.42;;;17.30;99.90;;;;;;4963412;28;20146;-75
2023/08/17 06:24:00;;;;;;;98.50;44.65;;;17.30;99.90;;;;;;4964138;28;20078;-75
2023/08/17 06:26:27;;;;;;;107.47;44.88;;;17.30;99.90;;;;;;4979212;28;20061;-75
2023/08/17 06:28:54;;;;;;;95.88;42.80;;;17.30;99.90;;;;;;4960914;28;20093;-75
2023/08/17 06:31:20;;;;;;;102.10;43.92;;;17.10;99.90;;;;;;4968994;28;20038;-75
2023/08/17 06:33:47;;;;;;;95.35;42.70;;;17.20;99.90;;;;;;4953490;28;20666;-75
2023/08/17 06:36:16;;;;;;;98.97;45.97;;;17.20;99.90;;;;;;4964061;28;20054;-74
2023/08/17 06:38:43;;;;;;;86.45;42.47;;;17.30;99.90;;;;;;4966013;28;20062;-75
2023/08/17 06:41:09;;;;;;;100.72;46.50;;;17.20;99.90;;;;;;4960669;28;20136;-75
2023/08/17 06:43:36;;;;;;;87.97;43.22;;;17.20;99.90;;;;;;4985202;28;20054;-75
2023/08/17 06:46:03;;;;;;;70.25;37.88;;;17.20;99.90;;;;;;4949191;28;20050;-75
2023/08/17 06:48:31;;;;;;;68.90;36.42;;;17.20;99.90;;;;;;4978369;28;20052;-75
2023/08/17 06:50:58;;;;;;;66.40;34.85;;;17.20;99.90;;;;;;4981664;28;20052;-74
2023/08/17 06:53:24;;;;;;;62.20;33.10;;;17.20;99.90;;;;;;4987859;28;20553;-74
2023/08/17 06:55:51;;;;;;;57.55;33.00;;;17.30;99.90;;;;;;4980892;28;20049;-74
2023/08/17 06:58:18;;;;;;;55.15;30.65;;;17.40;99.90;;;;;;4949299;28;20052;-75
2023/08/17 07:00:45;;;;;;;47.00;28.15;;;17.40;99.90;;;;;;4960883;28;20047;-75
2023/08/17 07:03:12;;;;;;;44.38;28.23;;;17.40;99.90;;;;;;4963686;28;20108;-76
2023/08/17 07:05:38;;;;;;;41.53;25.75;;;17.40;99.90;;;;;;4962771;28;20058;-76
2023/08/17 07:08:06;;;;;;;37.72;23.50;;;17.40;99.90;;;;;;4963600;28;20093;-76
2023/08/17 07:10:33;;;;;;;33.30;22.63;;;17.40;99.90;;;;;;4967659;28;20042;-76
2023/08/17 07:13:03;;;;;;;34.40;22.15;;;17.40;99.90;;;;;;4962117;28;20030;-76
2023/08/17 07:15:30;;;;;;;25.02;18.45;;;17.60;99.90;;;;;;4972901;28;20144;-76
2023/08/17 07:17:57;;;;;;;25.70;18.70;;;17.40;99.90;;;;;;4963201;28;20083;-76
2023/08/17 07:20:24;;;;;;;20.35;17.17;;;17.50;99.90;;;;;;4969785;28;20034;-76
2023/08/17 07:22:51;;;;;;;23.55;18.67;;;17.60;99.90;;;;;;4986398;28;20054;-76
2023/08/17 07:25:18;;;;;;;20.35;17.08;;;17.90;99.90;;;;;;4967459;28;20046;-76
2023/08/17 07:27:44;;;;;;;19.40;16.88;;;17.60;99.90;;;;;;4975155;28;20046;-76
2023/08/17 07:30:12;;;;;;;26.50;20.25;;;17.40;99.90;;;;;;4966316;28;20050;-76
2023/08/17 07:32:38;;;;;;;25.50;20.17;;;17.60;99.90;;;;;;4975070;28;20042;-76
2023/08/17 07:35:06;;;;;;;25.33;20.70;;;17.70;99.90;;;;;;4969303;28;20101;-76
2023/08/17 07:37:33;;;;;;;24.38;19.88;;;17.70;99.90;;;;;;4969010;28;20236;-74
2023/08/17 07:40:03;;;;;;;25.77;22.17;;;17.80;99.90;;;;;;4941996;28;20571;-76
2023/08/17 07:42:30;;;;;;;25.08;18.65;;;17.80;99.90;;;;;;4983354;28;20037;-76
2023/08/17 07:44:57;;;;;;;19.45;16.77;;;17.80;99.90;;;;;;4970639;28;20686;-76
2023/08/17 07:47:24;;;;;;;20.40;15.75;;;17.80;99.90;;;;;;4972966;28;20539;-76
2023/08/17 07:49:52;;;;;;;18.80;16.05;;;17.90;99.90;;;;;;4981108;28;20061;-75
2023/08/17 07:52:19;;;;;;;16.73;14.95;;;18.00;99.90;;;;;;4980402;28;20050;-77
2023/08/17 07:54:46;;;;;;;17.75;15.90;;;18.10;99.90;;;;;;4970731;28;20136;-76
2023/08/17 07:57:12;;;;;;;17.60;15.73;;;18.30;99.90;;;;;;4969065;28;20074;-77
2023/08/17 07:59:39;;;;;;;17.60;15.23;;;18.40;99.90;;;;;;4974982;28;20039;-76
2023/08/17 08:02:06;;;;;;;15.82;14.13;;;18.50;99.90;;;;;;4951684;28;20042;-76
2023/08/17 08:04:33;;;;;;;16.55;12.70;;;18.60;99.90;;;;;;4969598;28;20042;-76
2023/08/17 08:06:59;;;;;;;19.55;12.23;;;18.60;99.90;;;;;;4969402;28;20077;-76
2023/08/17 08:09:26;;;;;;;13.25;11.88;;;18.60;99.90;;;;;;4970887;28;20563;-77
2023/08/17 08:11:53;;;;;;;13.35;10.93;;;18.70;99.90;;;;;;4964087;28;20101;-76
2023/08/17 08:14:20;;;;;;;12.75;10.65;;;18.60;99.90;;;;;;4961500;28;20062;-77
2023/08/17 08:16:47;;;;;;;13.55;11.85;;;18.50;99.90;;;;;;4964477;28;20038;-76
2023/08/17 08:19:14;;;;;;;14.40;12.88;;;18.40;99.90;;;;;;4958958;28;20579;-76
2023/08/17 08:21:40;;;;;;;15.07;13.57;;;18.50;99.90;;;;;;4967896;28;20160;-76
2023/08/17 08:24:07;;;;;;;15.57;12.55;;;18.60;99.90;;;;;;4964418;28;20558;-76
2023/08/17 08:26:48;;;;;;;13.27;11.88;;;18.60;99.90;;;;;;4968908;28;20045;-76
2023/08/17 08:29:14;;;;;;;11.57;10.48;;;18.60;99.90;;;;;;4963029;28;20064;-76
2023/08/17 08:31:41;;;;;;;9.32;8.52;;;18.80;99.90;;;;;;4973867;28;20039;-77
2023/08/17 08:34:08;;;;;;;8.25;7.55;;;18.80;99.90;;;;;;4968115;28;20051;-77
2023/08/17 08:36:35;;;;;;;6.95;6.38;;;18.90;99.90;;;;;;4970239;28;20536;-77
2023/08/17 08:39:02;;;;;;;6.35;5.82;;;18.70;99.90;;;;;;4963932;28;20058;-76
2023/08/17 08:41:30;;;;;;;7.28;6.75;;;18.70;99.90;;;;;;4967597;28;20066;-77
2023/08/17 08:43:57;;;;;;;7.03;6.43;;;18.70;99.90;;;;;;4965979;28;20047;-76
2023/08/17 08:46:30;;;;;;;8.68;7.97;;;18.90;99.90;;;;;;4965578;28;20057;-76
2023/08/17 08:48:57;;;;;;;8.15;7.45;;;18.80;99.90;;;;;;4970352;28;20043;-77
2023/08/17 08:51:28;;;;;;;8.07;7.38;;;18.80;99.90;;;;;;4962832;28;20042;-78
2023/08/17 08:54:06;;;;;;;7.88;7.13;;;18.90;99.90;;;;;;4986108;28;20093;-76
2023/08/17 08:56:35;;;;;;;7.05;6.35;;;19.00;99.90;;;;;;4987384;28;20093;-76
2023/08/17 08:59:03;;;;;;;7.97;7.20;;;19.20;99.90;;;;;;4969663;28;20101;-76
2023/08/17 09:01:31;;;;;;;8.70;6.97;;;19.10;99.90;;;;;;4965723;28;20543;-77
2023/08/17 09:04:00;;;;;;;8.85;8.05;;;19.00;99.90;;;;;;4966325;28;20043;-76
2023/08/17 09:06:29;;;;;;;7.13;6.55;;;19.20;99.90;;;;;;4968062;28;20051;-77
2023/08/17 09:09:02;;;;;;;7.57;6.88;;;19.30;99.90;;;;;;4980330;28;20039;-77
2023/08/17 09:11:30;;;;;;;8.43;7.63;;;19.20;99.90;;;;;;4979984;28;20050;-76
2023/08/17 09:13:56;;;;;;;7.75;7.15;;;19.30;99.90;;;;;;4966123;28;20698;-76
2023/08/17 09:16:23;;;;;;;9.60;8.80;;;19.20;99.90;;;;;;4966213;28;20082;-77
2023/08/17 09:18:53;;;;;;;10.55;9.45;;;19.20;99.90;;;;;;4973164;28;20522;-75
2023/08/17 09:21:22;;;;;;;8.90;7.35;;;19.20;99.90;;;;;;4969169;28;20531;-78
2023/08/17 09:23:53;;;;;;;8.35;7.57;;;19.10;99.90;;;;;;4989250;28;20057;-76
2023/08/17 09:26:25;;;;;;;7.43;6.72;;;19.00;99.90;;;;;;4985265;28;20057;-75
2023/08/17 09:28:54;;;;;;;8.10;7.40;;;19.00;99.90;;;;;;4972491;28;20070;-78
2023/08/17 09:31:21;;;;;;;8.55;7.93;;;19.00;99.90;;;;;;4979598;28;20614;-76
2023/08/17 09:33:51;;;;;;;10.00;9.10;;;19.00;99.90;;;;;;4982099;28;20074;-77
2023/08/17 09:36:22;;;;;;;9.20;8.40;;;18.90;99.90;;;;;;4966845;28;21076;-76
2023/08/17 09:38:50;;;;;;;8.30;7.80;;;19.10;99.90;;;;;;4996583;28;20158;-76
2023/08/17 09:41:19;;;;;;;7.68;6.93;;;19.10;99.90;;;;;;4979991;28;20042;-76
2023/08/17 09:43:48;;;;;;;8.45;7.75;;;19.00;99.90;;;;;;4982562;28;20042;-78
2023/08/17 09:46:15;;;;;;;8.35;7.68;;;18.90;99.90;;;;;;4975534;28;20104;-78
2023/08/17 09:48:45;;;;;;;9.60;9.00;;;19.10;99.90;;;;;;4977374;28;20108;-78
2023/08/17 09:51:15;;;;;;;10.38;9.68;;;19.10;99.90;;;;;;4987539;28;20733;-77
2023/08/17 09:53:43;;;;;;;10.93;10.13;;;19.20;99.90;;;;;;4976560;28;20069;-78
2023/08/17 09:56:12;;;;;;;10.75;9.95;;;19.50;99.90;;;;;;4975036;28;20042;-78
2023/08/17 09:58:42;;;;;;;11.77;10.90;;;19.60;99.90;;;;;;4983034;28;20495;-78
2023/08/17 10:01:10;;;;;;;10.60;9.95;;;19.60;99.90;;;;;;4976885;28;20045;-78
2023/08/17 10:03:42;;;;;;;11.45;10.85;;;19.70;99.90;;;;;;4979443;28;20652;-79
2023/08/17 10:06:12;;;;;;;11.35;10.70;;;19.90;99.90;;;;;;4980152;28;20038;-76
2023/08/17 10:08:45;;;;;;;11.25;10.63;;;20.10;99.90;;;;;;4974513;28;20075;-78
2023/08/17 10:11:14;;;;;;;12.88;12.18;;;20.30;99.90;;;;;;4954353;28;20084;-79
2023/08/17 10:14:02;;;;;;;15.23;14.32;;;20.50;99.90;;;;;;4963669;28;20038;-78
2023/08/17 10:16:40;;;;;;;15.30;14.50;;;20.50;99.90;;;;;;4974024;28;20038;-78
2023/08/17 10:19:30;;;;;;;16.15;15.35;;;20.50;99.90;;;;;;4993185;28;20050;-78
2023/08/17 10:22:00;;;;;;;16.33;15.32;;;20.60;99.90;;;;;;4973854;28;20046;-77
2023/08/17 10:24:30;;;;;;;16.23;15.43;;;20.60;99.90;;;;;;4970841;28;20050;-77
2023/08/17 10:26:57;;;;;;;14.85;13.95;;;20.60;99.90;;;;;;4973640;28;20089;-80
2023/08/17 10:29:25;;;;;;;15.77;14.88;;;20.70;99.90;;;;;;4977664;28;20046;-83
2023/08/17 10:31:53;;;;;;;18.27;17.17;;;20.80;99.90;;;;;;4966481;28;20046;-79
2023/08/17 10:34:23;;;;;;;18.33;17.23;;;20.80;99.90;;;;;;4982561;28;20050;-82
2023/08/17 10:36:51;;;;;;;18.45;17.05;;;20.60;99.90;;;;;;5000379;28;20046;-82
2023/08/17 10:39:18;;;;;;;16.95;15.85;;;20.60;99.90;;;;;;4980643;28;20046;-81
2023/08/17 10:41:50;;;;;;;15.20;13.90;;;20.40;99.90;;;;;;4967129;28;20046;-85
2023/08/17 10:44:47;;;;;;;15.63;14.38;;;20.20;99.90;;;;;;4980785;28;20054;-81
2023/08/17 10:47:26;;;;;;;15.18;13.88;;;20.10;99.90;;;;;;4973844;28;20074;-79
2023/08/17 10:50:01;;;;;;;15.15;14.02;;;20.10;99.90;;;;;;4974543;28;20072;-81
2023/08/17 10:52:33;;;;;;;16.08;14.60;;;20.20;99.90;;;;;;4980921;28;20064;-81
2023/08/17 10:55:05;;;;;;;15.60;14.50;;;20.20;99.90;;;;;;4990540;28;20058;-81
2023/08/17 10:57:36;;;;;;;16.50;15.20;;;20.20;99.90;;;;;;4984816;28;20034;-80
2023/08/17 11:00:42;;;;;;;16.48;15.23;;;20.00;99.90;;;;;;4990453;28;20463;-81
2023/08/17 11:03:11;;;;;;;18.23;16.35;;;19.90;99.90;;;;;;4977304;28;20467;-80
2023/08/17 11:05:55;;;;;;;17.80;16.10;;;19.70;99.90;;;;;;4979871;28;20133;-78
2023/08/17 11:08:23;;;;;;;19.42;17.20;;;19.70;99.90;;;;;;4975778;28;20046;-72
2023/08/17 11:11:10;;;;;;;20.77;18.23;;;19.60;99.90;;;;;;4974168;28;20050;-75
2023/08/17 11:13:41;;;;;;;20.95;18.73;;;19.30;99.90;;;;;;4964384;28;20053;-75
2023/08/17 11:16:10;;;;;;;22.27;19.20;;;19.10;99.90;;;;;;4970242;28;20074;-74
2023/08/17 11:18:37;;;;;;;21.40;18.30;;;19.00;99.90;;;;;;4973472;28;20497;-76
2023/08/17 11:21:06;;;;;;;22.92;19.85;;;19.00;99.90;;;;;;4966632;28;20039;-76
2023/08/17 11:23:35;;;;;;;20.60;18.20;;;19.00;99.90;;;;;;4972480;28;20552;-76
2023/08/17 11:26:02;;;;;;;23.42;18.48;;;18.90;99.90;;;;;;4966513;28;20042;-76
2023/08/17 11:28:36;;;;;;;21.75;18.98;;;18.80;99.90;;;;;;4969719;28;20497;-77
2023/08/17 11:31:10;;;;;;;23.25;18.95;;;18.70;99.90;;;;;;4971667;28;20042;-77
2023/08/17 11:33:39;;;;;;;22.55;19.95;;;18.60;99.90;;;;;;4965306;28;20106;-76
2023/08/17 11:36:07;;;;;;;29.42;21.15;;;18.50;99.90;;;;;;4972011;28;20128;-76
2023/08/17 11:38:40;;;;;;;23.67;20.80;;;18.50;99.90;;;;;;4971510;28;20043;-76
2023/08/17 11:41:09;;;;;;;28.58;21.40;;;18.40;99.90;;;;;;4966139;28;20089;-75
2023/08/17 11:43:37;;;;;;;27.15;20.92;;;18.40;99.90;;;;;;4967237;28;20070;-76
2023/08/17 11:46:05;;;;;;;25.95;20.48;;;18.40;99.90;;;;;;4972771;28;20086;-76
2023/08/17 11:48:33;;;;;;;27.60;21.55;;;18.30;99.90;;;;;;4973358;28;20902;-75
2023/08/17 11:51:03;;;;;;;27.27;21.38;;;18.40;99.90;;;;;;4962249;28;20678;-77
2023/08/17 11:53:36;;;;;;;28.20;20.95;;;18.40;99.90;;;;;;4987593;28;20101;-77
2023/08/17 11:56:03;;;;;;;24.25;19.90;;;18.40;99.90;;;;;;4957319;28;20047;-75
2023/08/17 11:58:42;;;;;;;26.58;21.15;;;18.40;99.90;;;;;;4969783;28;20042;-75
2023/08/17 12:01:11;;;;;;;27.63;21.13;;;18.50;99.90;;;;;;4971607;28;20705;-76
2023/08/17 12:03:39;;;;;;;29.95;21.90;;;18.50;99.90;;;;;;4969258;28;20137;-76
2023/08/17 12:06:06;;;;;;;31.77;23.50;;;18.50;99.90;;;;;;4957601;28;20097;-76
2023/08/17 12:08:34;;;;;;;26.42;21.67;;;18.50;99.90;;;;;;4966170;28;22276;-76
2023/08/17 12:11:02;;;;;;;28.70;21.20;;;18.50;99.90;;;;;;4967210;28;20815;-76
2023/08/17 12:13:34;;;;;;;28.08;21.58;;;18.60;99.90;;;;;;4967615;28;20069;-76
2023/08/17 12:16:02;;;;;;;30.80;21.83;;;18.60;99.90;;;;;;4972076;28;20050;-76
2023/08/17 12:18:31;;;;;;;29.95;21.83;;;18.80;99.90;;;;;;4969260;28;20057;-75
2023/08/17 12:20:58;;;;;;;30.08;21.48;;;18.80;99.90;;;;;;4984659;28;20045;-76
2023/08/17 12:23:25;;;;;;;27.75;21.90;;;18.90;99.90;;;;;;4951472;28;20070;-76
2023/08/17 12:25:54;;;;;;;29.55;23.20;;;18.90;99.90;;;;;;4972684;28;20046;-77
2023/08/17 12:28:22;;;;;;;26.38;22.00;;;18.90;99.90;;;;;;4969870;28;20046;-76
2023/08/17 12:31:00;;;;;;;32.92;24.27;;;18.90;99.90;;;;;;4973247;28;20551;-76
2023/08/17 12:33:28;;;;;;;29.95;22.88;;;19.10;99.90;;;;;;4969497;28;20050;-76
2023/08/17 12:35:55;;;;;;;29.85;22.13;;;19.10;99.90;;;;;;4967600;28;21460;-76